Time;durP1;ratioP1;P1;durP2;ratioP2;P2;SDS_P1;SDS_P2;PMS_P1;PMS_P2;Temp;Humidity;BMP_temperature;BMP_pressure;BME280_temperature;BME280_humidity;BME280_pressure;Samples;Min_cycle;Max_cycle;Signal;HPM_P1;HPM_P2
2022/01/12 00:01:46;;;;;;;10.48;2.70;;;;;;;7.44;100.00;102330.41;5128032;27;20050;-82
2022/01/12 00:04:13;;;;;;;13.57;3.45;;;;;;;7.43;100.00;102338.22;5126816;27;20069;-82
2022/01/12 00:06:40;;;;;;;10.15;2.42;;;;;;;7.52;100.00;102331.25;5129233;27;20051;-82
2022/01/12 00:09:07;;;;;;;7.40;2.00;;;;;;;7.54;100.00;102345.19;5131187;27;20050;-82
2022/01/12 00:11:35;;;;;;;7.05;2.13;;;;;;;7.58;100.00;102323.44;5124327;27;20042;-82
2022/01/12 00:14:04;;;;;;;8.93;2.38;;;;;;;7.63;100.00;102339.06;5126376;27;20083;-82
2022/01/12 00:16:31;;;;;;;10.80;2.35;;;;;;;7.42;100.00;102324.31;5124838;27;20053;-82
2022/01/12 00:18:58;;;;;;;10.20;2.28;;;;;;;7.34;100.00;102313.00;5130097;27;20047;-82
2022/01/12 00:21:25;;;;;;;7.93;2.40;;;;;;;7.40;100.00;102315.59;5142839;27;20050;-82
2022/01/12 00:23:52;;;;;;;12.15;3.00;;;;;;;7.29;100.00;102310.38;5130379;27;20053;-82
2022/01/12 00:34:36;;;;;;;10.27;2.47;;;;;;;7.26;100.00;102302.59;5140083;27;20407;-82
2022/01/12 00:37:03;;;;;;;8.75;2.20;;;;;;;7.29;100.00;102315.59;5130899;27;20070;-82
2022/01/12 00:39:29;;;;;;;9.00;1.92;;;;;;;7.37;100.00;102328.66;5135357;27;20049;-82
2022/01/12 00:41:56;;;;;;;8.07;1.85;;;;;;;7.35;100.00;102333.84;5130462;27;20728;-81
2022/01/12 00:44:29;;;;;;;3.90;1.92;;;;;;;7.45;100.00;102339.06;5130349;27;20054;-81
2022/01/12 00:46:56;;;;;;;9.60;2.20;;;;;;;7.36;100.00;102353.81;5131543;27;20055;-82
2022/01/12 00:49:23;;;;;;;7.03;1.90;;;;;;;7.28;100.00;102350.34;5128897;27;20047;-82
2022/01/12 00:51:54;;;;;;;6.68;1.88;;;;;;;7.09;100.00;102325.97;5129633;27;20043;-82
2022/01/12 00:54:22;;;;;;;7.20;1.90;;;;;;;7.17;100.00;102321.66;5147715;27;20046;-82
2022/01/12 00:56:49;;;;;;;8.23;1.90;;;;;;;7.42;100.00;102347.78;5128487;27;20047;-82
2022/01/12 00:59:16;;;;;;;7.15;1.98;;;;;;;7.19;100.00;102306.06;5125842;27;20061;-83
2022/01/12 01:01:43;;;;;;;8.48;2.13;;;;;;;7.36;100.00;102335.56;5147312;27;20046;-82
2022/01/12 01:04:10;;;;;;;11.32;2.13;;;;;;;7.37;100.00;102341.69;5124237;27;20055;-82
2022/01/12 01:06:37;;;;;;;6.68;1.80;;;;;;;7.16;100.00;102348.56;5154568;27;20049;-82
2022/01/12 01:09:05;;;;;;;7.00;1.52;;;;;;;7.46;100.00;102346.03;5148324;27;20144;-82
2022/01/12 01:11:33;;;;;;;8.90;1.80;;;;;;;7.38;100.00;102330.38;5133112;27;20042;-82
2022/01/12 01:14:03;;;;;;;4.78;1.67;;;;;;;7.38;100.00;102317.34;5130070;27;20049;-82
2022/01/12 01:27:25;;;;;;;9.35;1.63;;;;;;;7.18;100.00;102297.34;5145388;27;20054;-82
2022/01/12 01:29:54;;;;;;;5.25;1.90;;;;;;;7.33;100.00;102299.13;5147969;27;20069;-82
2022/01/12 01:32:22;;;;;;;7.13;1.60;;;;;;;7.59;100.00;102325.16;5146717;27;20051;-82
2022/01/12 01:34:49;;;;;;;6.47;1.90;;;;;;;7.27;100.00;102265.22;5144699;27;20133;-82
2022/01/12 01:37:16;;;;;;;9.25;1.65;;;;;;;7.60;100.00;102313.88;5129290;27;20074;-82
2022/01/12 01:39:45;;;;;;;9.52;1.83;;;;;;;7.66;100.00;102348.66;5130642;27;20511;-82
2022/01/12 01:42:23;;;;;;;6.22;1.67;;;;;;;7.64;100.00;102327.78;5126999;27;20083;-82
2022/01/12 01:55:40;;;;;;;6.45;1.60;;;;;;;7.82;100.00;102313.88;5145507;27;20052;-82
2022/01/12 01:58:07;;;;;;;6.55;1.63;;;;;;;7.78;100.00;102341.69;5127542;27;20069;-82
2022/01/12 02:00:35;;;;;;;6.95;1.90;;;;;;;7.57;100.00;102326.06;5129859;27;20047;-81
2022/01/12 02:03:02;;;;;;;10.70;2.15;;;;;;;7.66;100.00;102330.41;5148618;27;20046;-82
2022/01/12 02:05:31;;;;;;;7.40;1.75;;;;;;;7.81;100.00;102333.00;5126310;27;20116;-82
2022/01/12 02:07:58;;;;;;;10.50;1.85;;;;;;;8.18;100.00;102346.00;5128542;27;20043;-82
2022/01/12 02:10:25;;;;;;;6.03;1.73;;;;;;;8.13;100.00;102325.13;5130025;27;20047;-82
2022/01/12 02:12:52;;;;;;;9.57;2.08;;;;;;;8.14;100.00;102326.00;5148456;27;20050;-82
2022/01/12 02:15:22;;;;;;;7.30;1.58;;;;;;;8.08;100.00;102316.44;5144258;27;20473;-82
2022/01/12 02:40:07;;;;;;;9.93;2.22;;;;;;;8.44;100.00;102334.66;5140181;27;20046;-83
2022/01/12 02:42:17;;;;;;;15.73;2.95;;;;;;;8.43;100.00;102327.69;5135175;27;20039;-83
2022/01/12 02:53:42;;;;;;;8.10;1.65;;;;;;;8.88;100.00;102317.94;5039267;28;20048;-83
2022/01/12 02:56:15;;;;;;;7.55;1.50;;;;;;;9.15;100.00;102324.75;5041816;28;20058;-83
2022/01/12 02:58:44;;;;;;;8.00;1.60;;;;;;;9.28;100.00;102322.94;5091367;27;20057;-83
2022/01/12 03:03:56;;;;;;;3.92;1.30;;;;;;;9.21;100.00;102298.59;5134146;27;20043;-82
2022/01/12 03:06:30;;;;;;;5.88;1.38;;;;;;;9.34;100.00;102319.41;5127739;27;20078;-84
2022/01/12 03:08:57;;;;;;;9.32;1.65;;;;;;;9.36;100.00;102328.09;5134695;27;20047;-84
2022/01/12 03:11:25;;;;;;;7.50;2.00;;;;;;;9.45;100.00;102315.81;5136146;27;20505;-84
2022/01/12 03:13:53;;;;;;;7.55;1.60;;;;;;;9.83;100.00;102316.41;5151602;27;20045;-84
2022/01/12 03:16:24;;;;;;;5.05;1.38;;;;;;;9.62;100.00;102315.69;5136953;27;20046;-84
2022/01/12 03:18:56;;;;;;;5.20;1.35;;;;;;;9.80;100.00;102312.03;5135619;27;20046;-84
2022/01/12 03:21:27;;;;;;;3.90;1.30;;;;;;;9.72;100.00;102303.41;5136774;27;20050;-84
2022/01/12 03:23:54;;;;;;;8.30;1.60;;;;;;;9.73;100.00;102315.59;5136556;27;20038;-84
2022/01/12 03:26:23;;;;;;;6.00;1.55;;;;;;;9.72;100.00;102308.66;5135805;27;20054;-83
2022/01/12 03:28:54;;;;;;;9.98;1.52;;;;;;;9.40;100.00;102254.00;5153358;27;20039;-84
2022/01/12 03:31:24;;;;;;;5.22;1.38;;;;;;;9.71;100.00;102316.50;5136393;27;20050;-84
2022/01/12 03:38:53;;;;;;;3.30;1.35;;;;;;;9.51;100.00;102299.22;5150212;27;20058;-84
2022/01/12 03:41:20;;;;;;;5.82;1.25;;;;;;;9.96;100.00;102320.63;5141980;27;20046;-83
2022/01/12 03:43:52;;;;;;;3.88;1.27;;;;;;;9.65;100.00;102320.00;5131747;27;20520;-83
2022/01/12 03:46:23;;;;;;;5.15;1.20;;;;;;;9.84;100.00;102321.63;5130275;27;20058;-83
2022/01/12 03:48:51;;;;;;;3.78;1.23;;;;;;;9.85;100.00;102312.00;5155697;27;20047;-83
2022/01/12 03:51:18;;;;;;;6.22;1.25;;;;;;;9.75;100.00;102300.75;5132969;27;20139;-83
2022/01/12 03:53:44;;;;;;;5.50;1.10;;;;;;;9.77;100.00;102301.59;5131827;28;20504;-83
2022/01/12 03:56:11;;;;;;;5.22;1.15;;;;;;;9.85;100.00;102307.63;5135659;27;20043;-83
2022/01/12 03:58:38;;;;;;;1.52;1.05;;;;;;;9.85;100.00;102302.41;5134589;27;20043;-84
2022/01/12 04:01:05;;;;;;;5.43;1.10;;;;;;;10.08;100.00;102296.94;5135394;27;20495;-84
2022/01/12 04:03:38;;;;;;;1.75;0.95;;;;;;;10.31;100.00;102288.00;5153979;27;20047;-84
2022/01/12 04:08:51;;;;;;;4.63;1.60;;;;;;;10.54;100.00;102313.91;5149555;27;20050;-83
2022/01/12 04:11:17;;;;;;;3.15;1.10;;;;;;;10.48;100.00;102324.44;5129831;27;20046;-84
2022/01/12 04:13:47;;;;;;;2.15;1.02;;;;;;;10.16;100.00;102315.16;5135303;27;20089;-84
2022/01/12 04:16:15;;;;;;;2.85;1.20;;;;;;;10.33;100.00;102325.50;5135458;27;20053;-84
2022/01/12 04:18:43;;;;;;;1.92;0.90;;;;;;;10.89;100.00;102317.84;5151599;27;20380;-83
2022/01/12 04:21:12;;;;;;;1.10;0.90;;;;;;;10.59;100.00;102306.88;5136071;27;20057;-84
2022/01/12 04:23:40;;;;;;;4.10;1.23;;;;;;;10.71;100.00;102318.06;5135933;27;20047;-84
2022/01/12 04:26:11;;;;;;;1.92;0.95;;;;;;;10.81;100.00;102324.91;5135618;27;20053;-84
2022/01/12 04:28:41;;;;;;;2.58;0.90;;;;;;;10.77;100.00;102311.00;5132648;27;20544;-84
2022/01/12 04:31:09;;;;;;;4.50;1.23;;;;;;;10.48;100.00;102321.81;5128579;27;20047;-84
2022/01/12 04:33:37;;;;;;;2.50;1.10;;;;;;;10.76;100.00;102324.97;5135414;27;20046;-81
2022/01/12 04:36:06;;;;;;;2.95;1.10;;;;;;;10.69;100.00;102310.22;5126389;28;20043;-84
2022/01/12 04:38:34;;;;;;;1.42;0.90;;;;;;;10.80;100.00;102305.72;5115474;27;20051;-83
2022/01/12 04:41:03;;;;;;;1.75;1.00;;;;;;;10.89;100.00;102306.47;5153234;27;20050;-84
2022/01/12 04:43:31;;;;;;;2.70;1.00;;;;;;;10.77;100.00;102323.25;5126975;28;20053;-84
2022/01/12 04:48:49;;;;;;;;;;;;;;;10.83;100.00;102324.00;5133762;27;20043;-84
2022/01/12 04:51:16;;;;;;;4.13;1.10;;;;;;;10.45;100.00;102327.13;5135042;27;19925;-84
2022/01/12 04:53:43;;;;;;;3.20;1.10;;;;;;;10.89;100.00;102336.19;5135763;27;20488;-84
2022/01/12 04:56:09;;;;;;;3.33;1.00;;;;;;;10.93;100.00;102321.28;5135713;27;20051;-84
2022/01/12 04:58:36;;;;;;;3.22;1.00;;;;;;;10.91;100.00;102328.31;5135681;27;20038;-84
2022/01/12 05:01:13;;;;;;;1.55;1.00;;;;;;;10.67;100.00;102300.66;5135319;27;20047;-84
2022/01/12 05:09:26;;;;;;;3.75;1.92;;;;;;;11.00;100.00;102326.41;5135911;27;20047;-84
2022/01/12 05:14:44;;;;;;;1.58;1.00;;;;;;;10.64;100.00;102307.69;5157214;27;20047;-84
2022/01/12 05:17:11;;;;;;;1.50;0.90;;;;;;;10.76;100.00;102306.63;5157509;27;20054;-84
2022/01/12 05:19:38;;;;;;;2.00;0.90;;;;;;;10.76;100.00;102305.78;5138350;27;20046;-84
2022/01/12 05:22:05;;;;;;;1.55;0.93;;;;;;;10.56;100.00;102293.81;5138536;27;20046;-84
2022/01/12 05:24:32;;;;;;;2.17;1.00;;;;;;;10.97;100.00;102322.97;5138078;27;20043;-84
2022/01/12 05:27:19;;;;;;;1.48;1.10;;;;;;;10.91;100.00;102317.81;5141445;27;20046;-84
2022/01/12 05:29:46;;;;;;;2.42;1.25;;;;;;;10.94;100.00;102318.66;5147448;27;20051;-84
2022/01/12 05:32:13;;;;;;;1.77;0.80;;;;;;;10.72;100.00;102309.34;5138775;27;20531;-84
2022/01/12 05:34:41;;;;;;;3.92;0.90;;;;;;;10.59;100.00;102300.78;5138399;27;20062;-83
2022/01/12 05:37:08;;;;;;;2.00;0.90;;;;;;;10.74;100.00;102323.28;5138611;27;20046;-84
2022/01/12 05:39:35;;;;;;;6.25;1.10;;;;;;;10.61;100.00;102317.34;5155284;27;20049;-83
2022/01/12 05:42:23;;;;;;;1.20;0.90;;;;;;;10.89;100.00;102333.56;5120355;27;20043;-83
2022/01/12 05:44:50;;;;;;;1.20;0.82;;;;;;;10.68;100.00;102329.47;5152305;27;20050;-83
2022/01/12 05:47:33;;;;;;;4.05;0.93;;;;;;;10.77;100.00;102331.09;5156362;27;20046;-83
2022/01/12 05:50:00;;;;;;;;;;;;;;;11.02;100.00;102347.34;5144956;27;20051;-84
2022/01/12 05:52:26;;;;;;;2.28;1.00;;;;;;;10.96;100.00;102340.44;5157050;27;20380;-83
2022/01/12 05:54:53;;;;;;;2.45;1.00;;;;;;;10.73;100.00;102330.28;5137776;27;20045;-83
2022/01/12 05:57:20;;;;;;;1.40;0.90;;;;;;;10.92;100.00;102346.59;5137672;27;20481;-84
2022/01/12 05:59:47;;;;;;;1.80;0.90;;;;;;;10.90;100.00;102347.53;5154072;27;20054;-81
2022/01/12 06:02:13;;;;;;;1.38;0.90;;;;;;;10.71;100.00;102339.91;5138093;27;20469;-84
2022/01/12 06:04:41;;;;;;;2.35;0.90;;;;;;;10.93;100.00;102350.97;5155945;27;20480;-81
2022/01/12 06:07:11;;;;;;;2.10;1.08;;;;;;;10.90;100.00;102343.13;5141111;27;20043;-84
2022/01/12 06:09:38;;;;;;;1.52;0.88;;;;;;;10.96;100.00;102371.00;5137088;27;20046;-84
2022/01/12 06:12:05;;;;;;;1.23;0.80;;;;;;;11.14;100.00;102359.44;5137745;27;20435;-84
2022/01/12 06:14:32;;;;;;;1.52;1.00;;;;;;;10.95;100.00;102336.09;5137070;27;20046;-84
2022/01/12 06:16:59;;;;;;;1.75;0.82;;;;;;;11.10;100.00;102356.00;5155915;27;20057;-85
2022/01/12 06:19:26;;;;;;;1.02;0.90;;;;;;;11.02;100.00;102363.09;5147869;27;20054;-84
2022/01/12 06:21:52;;;;;;;1.45;0.80;;;;;;;11.06;100.00;102333.31;5116966;27;20058;-84
2022/01/12 06:24:20;;;;;;;1.10;0.82;;;;;;;11.21;100.00;102354.06;5116828;27;20051;-84
2022/01/12 06:26:47;;;;;;;1.13;0.90;;;;;;;11.36;100.00;102373.09;5116864;27;20054;-84
2022/01/12 06:29:25;;;;;;;1.23;0.90;;;;;;;11.14;100.00;102375.16;5134769;27;20046;-84
2022/01/12 06:31:56;;;;;;;0.90;0.80;;;;;;;11.34;100.00;102382.75;5136985;27;20070;-84
2022/01/12 06:34:23;;;;;;;3.00;1.00;;;;;;;11.55;100.00;102376.31;5136981;27;20043;-84
2022/01/12 06:36:50;;;;;;;1.10;0.80;;;;;;;11.54;100.00;102388.56;5136542;27;20491;-83
2022/01/12 06:39:20;;;;;;;3.15;0.90;;;;;;;11.57;100.00;102401.63;5154256;27;20050;-81
2022/01/12 06:41:47;;;;;;;1.00;0.90;;;;;;;11.43;100.00;102400.09;5154303;27;20039;-81
2022/01/12 06:44:20;;;;;;;1.10;0.90;;;;;;;11.63;100.00;102410.28;5136294;27;20054;-81
2022/01/12 06:46:51;;;;;;;0.80;0.80;;;;;;;11.61;100.00;102405.06;5155281;27;20060;-83
2022/01/12 06:49:18;;;;;;;1.05;0.80;;;;;;;11.50;100.00;102402.59;5136146;27;20054;-83
2022/01/12 06:51:46;;;;;;;1.50;0.80;;;;;;;11.81;100.00;102436.25;5135972;27;20503;-82
2022/01/12 06:54:16;;;;;;;0.93;0.80;;;;;;;11.88;100.00;102435.28;5148532;27;20062;-82
2022/01/12 06:56:43;;;;;;;1.40;0.80;;;;;;;11.71;100.00;102425.03;5135085;27;20055;-82
2022/01/12 06:59:10;;;;;;;2.03;0.80;;;;;;;11.60;100.00;102419.09;5128902;27;20530;-83
2022/01/12 07:01:37;;;;;;;0.80;0.80;;;;;;;11.96;100.00;102445.66;5154678;27;20057;-84
2022/01/12 07:04:04;;;;;;;1.77;0.90;;;;;;;11.91;100.00;102435.22;5154377;27;20448;-82
2022/01/12 07:06:31;;;;;;;0.80;0.80;;;;;;;11.80;100.00;102452.03;5135934;27;20049;-82
2022/01/12 07:08:58;;;;;;;0.80;0.80;;;;;;;12.25;100.00;102457.44;5135642;27;20042;-84
2022/01/12 07:11:24;;;;;;;0.95;0.85;;;;;;;11.88;100.00;102456.28;5132341;27;20074;-84
2022/01/12 07:13:51;;;;;;;0.90;0.80;;;;;;;12.00;100.00;102463.09;5136080;27;20932;-83
2022/01/12 07:16:18;;;;;;;0.80;0.80;;;;;;;12.13;100.00;102461.16;5153090;27;20057;-85
2022/01/12 07:18:45;;;;;;;1.02;0.80;;;;;;;12.14;100.00;102458.47;5130172;27;20745;-84
2022/01/12 07:21:12;;;;;;;0.90;0.80;;;;;;;12.04;100.00;102461.28;5136253;27;20051;-83
2022/01/12 07:23:39;;;;;;;1.23;0.88;;;;;;;11.96;100.00;102474.53;5130269;27;20039;-84
2022/01/12 07:26:07;;;;;;;1.10;0.80;;;;;;;11.77;100.00;102481.78;5128949;27;20137;-83
2022/01/12 07:28:33;;;;;;;2.47;0.85;;;;;;;11.69;100.00;102465.31;5127368;27;20047;-83
2022/01/12 07:31:00;;;;;;;4.20;0.98;;;;;;;11.82;100.00;102481.72;5128708;27;20046;-84
2022/01/12 07:33:27;;;;;;;1.67;0.80;;;;;;;11.70;100.00;102453.91;5125883;27;20071;-83
2022/01/12 07:35:54;;;;;;;0.93;0.80;;;;;;;11.76;100.00;102452.06;5126332;27;20254;-83
2022/01/12 07:38:20;;;;;;;0.90;0.80;;;;;;;12.02;100.00;102497.19;5146066;27;20467;-82
2022/01/12 07:40:47;;;;;;;1.33;0.82;;;;;;;12.36;100.00;102508.03;5125090;27;20069;-83
2022/01/12 07:43:14;;;;;;;1.35;0.90;;;;;;;12.31;100.00;102497.59;5117724;27;20054;-83
2022/01/12 07:45:41;;;;;;;1.25;0.80;;;;;;;12.13;100.00;102511.91;5144695;27;20407;-83
2022/01/12 07:48:08;;;;;;;1.00;0.88;;;;;;;12.44;100.00;102507.91;5131350;27;20051;-83
2022/01/12 07:50:34;;;;;;;1.40;0.82;;;;;;;12.44;100.00;102511.38;5130834;27;20440;-82
2022/01/12 07:53:01;;;;;;;0.80;0.80;;;;;;;12.52;100.00;102517.38;5152978;27;20729;-84
2022/01/12 07:55:28;;;;;;;0.80;0.80;;;;;;;12.15;100.00;102510.13;5126888;27;20047;-84
2022/01/12 07:57:55;;;;;;;1.05;0.80;;;;;;;12.43;100.00;102535.06;5126663;27;20051;-84
2022/01/12 08:00:22;;;;;;;1.83;0.90;;;;;;;12.33;100.00;102543.09;5126318;27;20058;-83
2022/01/12 08:02:51;;;;;;;2.38;0.70;;;;;;;12.15;100.00;102536.38;5139296;27;20054;-86
2022/01/12 08:05:19;;;;;;;2.00;1.00;;;;;;;12.18;100.00;102547.72;5155231;27;20073;-84
2022/01/12 08:07:48;;;;;;;3.53;1.20;;;;;;;12.09;100.00;102535.59;5140297;27;20058;-84
2022/01/12 08:10:16;;;;;;;5.05;1.63;;;;;;;12.20;100.00;102548.56;5134382;27;20465;-84
2022/01/12 08:12:43;;;;;;;8.18;1.95;;;;;;;11.85;100.00;102536.81;5135537;27;20051;-83
2022/01/12 08:15:11;;;;;;;3.05;1.10;;;;;;;11.83;100.00;102559.56;5135240;27;20042;-83
2022/01/12 08:17:38;;;;;;;1.70;1.00;;;;;;;11.96;100.00;102550.66;5135497;27;20057;-84
2022/01/12 08:20:10;;;;;;;2.03;0.90;;;;;;;12.13;100.00;102555.69;5139222;27;20054;-83
2022/01/12 08:22:38;;;;;;;2.65;1.08;;;;;;;11.64;100.00;102556.34;5115328;28;20396;-83
2022/01/12 08:25:06;;;;;;;2.97;0.90;;;;;;;11.98;100.00;102559.38;5139922;27;20053;-83
2022/01/12 08:27:32;;;;;;;2.20;1.00;;;;;;;11.88;100.00;102548.13;5135184;27;20061;-84
2022/01/12 08:30:01;;;;;;;1.98;1.00;;;;;;;11.85;100.00;102556.03;5134051;27;20054;-81
2022/01/12 08:32:29;;;;;;;1.40;0.90;;;;;;;11.85;100.00;102565.69;5136001;27;20046;-85
2022/01/12 08:34:57;;;;;;;1.58;1.10;;;;;;;11.88;100.00;102579.63;5138912;27;20043;-84
2022/01/12 08:37:24;;;;;;;1.05;0.90;;;;;;;11.67;100.00;102566.75;5136483;27;20047;-84
2022/01/12 08:39:52;;;;;;;1.60;1.00;;;;;;;11.83;100.00;102567.44;5139388;27;20049;-84
2022/01/12 08:42:19;;;;;;;1.42;1.00;;;;;;;11.63;100.00;102557.22;5158093;27;20419;-83
2022/01/12 08:44:46;;;;;;;2.05;1.00;;;;;;;11.57;100.00;102559.03;5156372;27;20038;-86
2022/01/12 08:47:13;;;;;;;1.33;0.88;;;;;;;11.68;100.00;102560.66;5137066;27;20782;-85
2022/01/12 08:49:40;;;;;;;1.13;0.88;;;;;;;11.56;100.00;102557.31;5147121;27;20075;-85
2022/01/12 08:52:07;;;;;;;2.35;1.23;;;;;;;11.48;100.00;102540.78;5121379;27;20452;-84
2022/01/12 08:54:34;;;;;;;1.40;1.00;;;;;;;11.52;100.00;102566.06;5132627;27;20054;-85
2022/01/12 08:57:02;;;;;;;1.45;1.00;;;;;;;11.64;100.00;102569.47;5145076;27;20055;-85
2022/01/12 08:59:29;;;;;;;0.90;0.80;;;;;;;11.75;100.00;102559.69;5144970;27;20047;-85
2022/01/12 09:01:56;;;;;;;2.60;1.58;;;;;;;11.98;100.00;102559.38;5138205;27;20035;-85
2022/01/12 09:04:22;;;;;;;1.88;1.00;;;;;;;11.83;100.00;102564.81;5138521;27;20054;-85
2022/01/12 09:06:50;;;;;;;1.10;0.90;;;;;;;11.47;100.00;102577.53;5155849;27;20043;-85
2022/01/12 09:09:17;;;;;;;1.30;0.93;;;;;;;11.44;100.00;102546.97;5149668;27;20138;-85
2022/01/12 09:11:44;;;;;;;1.63;0.93;;;;;;;11.81;100.00;102577.09;5138631;27;20043;-85
2022/01/12 09:14:11;;;;;;;1.00;0.80;;;;;;;11.67;100.00;102575.53;5137203;27;20055;-85
2022/01/12 09:16:38;;;;;;;2.28;1.00;;;;;;;11.95;100.00;102562.03;5138616;27;20487;-85
2022/01/12 09:19:05;;;;;;;2.83;1.10;;;;;;;11.70;100.00;102570.22;5152099;27;20051;-85
2022/01/12 09:21:33;;;;;;;3.30;1.13;;;;;;;11.76;100.00;102570.16;5126416;27;20047;-85
2022/01/12 09:23:59;;;;;;;1.55;1.00;;;;;;;12.04;100.00;102564.56;5132908;27;20476;-85
2022/01/12 09:26:26;;;;;;;1.80;1.00;;;;;;;12.18;100.00;102569.59;5155431;27;20053;-85
2022/01/12 09:28:53;;;;;;;2.70;1.08;;;;;;;12.00;100.00;102581.22;5128751;27;20049;-85
2022/01/12 09:31:20;;;;;;;1.15;0.95;;;;;;;12.00;100.00;102580.38;5138281;27;20050;-85
2022/01/12 09:33:49;;;;;;;2.67;0.98;;;;;;;12.07;100.00;102587.25;5129782;27;20066;-85
2022/01/12 09:36:16;;;;;;;1.35;0.80;;;;;;;11.80;100.00;102581.47;5132926;27;20403;-84
2022/01/12 09:38:43;;;;;;;2.00;0.88;;;;;;;11.54;100.00;102556.47;5131317;27;20268;-85
2022/01/12 09:41:10;;;;;;;2.65;1.20;;;;;;;11.84;100.00;102563.94;5137225;27;20049;-85
2022/01/12 09:43:39;;;;;;;1.10;0.90;;;;;;;11.96;100.00;102567.28;5136306;27;20046;-85
2022/01/12 09:46:07;;;;;;;1.65;1.00;;;;;;;11.93;100.00;102553.31;5134704;27;20103;-85
2022/01/12 09:48:36;;;;;;;2.75;1.00;;;;;;;12.16;100.00;102576.63;5128230;27;20050;-85
2022/01/12 09:51:06;;;;;;;1.95;1.10;;;;;;;12.11;100.00;102591.56;5151096;27;20057;-85
2022/01/12 09:53:36;;;;;;;4.10;1.50;;;;;;;12.37;100.00;102599.06;5129065;27;20047;-84
2022/01/12 09:56:09;;;;;;;4.88;1.83;;;;;;;12.08;100.00;102576.75;5147535;27;20055;-85
2022/01/12 09:58:36;;;;;;;2.72;1.15;;;;;;;12.01;100.00;102574.25;5135722;27;20075;-84
2022/01/12 10:01:03;;;;;;;3.47;1.20;;;;;;;11.80;100.00;102581.47;5137264;27;20404;-85
2022/01/12 10:03:32;;;;;;;2.95;1.10;;;;;;;12.22;100.00;102596.69;5132250;27;20062;-85
2022/01/12 10:06:00;;;;;;;2.47;0.90;;;;;;;12.03;100.00;102583.81;5125973;27;20046;-85
2022/01/12 10:08:35;;;;;;;1.50;0.90;;;;;;;12.26;100.00;102593.13;5125320;27;20058;-85
2022/01/12 10:11:07;;;;;;;1.65;1.00;;;;;;;12.07;100.00;102601.25;5134456;27;20055;-85
2022/01/12 10:13:37;;;;;;;2.85;1.50;;;;;;;12.22;100.00;102600.19;5132444;27;20047;-84
2022/01/12 10:16:16;;;;;;;4.05;1.40;;;;;;;12.22;100.00;102588.81;5144245;27;20051;-84
2022/01/12 10:18:51;;;;;;;3.70;1.30;;;;;;;12.26;100.00;102622.88;5126679;27;20043;-83
2022/01/12 10:21:38;;;;;;;2.90;1.00;;;;;;;12.00;100.00;102607.47;5151936;27;20051;-83
2022/01/12 10:24:06;;;;;;;2.30;1.00;;;;;;;12.33;100.00;102644.69;5149009;27;20059;-83
2022/01/12 10:26:39;;;;;;;2.05;1.08;;;;;;;12.36;100.00;102628.88;5154603;27;20773;-84
2022/01/12 10:29:10;;;;;;;2.47;1.10;;;;;;;12.41;100.00;102616.53;5144732;27;20078;-84
2022/01/12 10:31:48;;;;;;;2.15;1.10;;;;;;;12.48;100.00;102623.44;5127508;27;20049;-83
2022/01/12 10:34:21;;;;;;;3.65;1.42;;;;;;;12.62;100.00;102625.81;5128997;27;20083;-83
2022/01/12 10:36:48;;;;;;;4.50;1.40;;;;;;;12.75;100.00;102629.13;5150964;27;20057;-84
2022/01/12 10:39:16;;;;;;;2.95;1.30;;;;;;;12.48;100.00;102618.19;5129845;27;20042;-84
2022/01/12 10:42:07;;;;;;;4.13;1.27;;;;;;;12.70;100.00;102636.22;5129800;27;20042;-85
2022/01/12 10:44:37;;;;;;;1.83;0.98;;;;;;;12.28;100.00;102599.22;5135563;27;20042;-84
2022/01/12 10:47:11;;;;;;;1.70;1.00;;;;;;;12.49;100.00;102617.28;5147415;27;20047;-85
2022/01/12 10:49:39;;;;;;;;;;;;;;;12.54;100.00;102620.69;5151983;27;20504;-85
2022/01/12 10:52:09;;;;;;;5.10;1.63;;;;;;;12.64;100.00;102615.28;5148714;27;20585;-85
2022/01/12 10:54:50;;;;;;;2.55;1.15;;;;;;;12.65;100.00;102627.56;5126664;27;20047;-84
2022/01/12 10:57:22;;;;;;;2.67;1.23;;;;;;;12.67;100.00;102594.22;5134718;27;20504;-84
2022/01/12 11:00:21;;;;;;;3.75;1.35;;;;;;;12.82;100.00;102609.75;5126083;27;20058;-85
2022/01/12 11:02:56;;;;;;;3.03;1.10;;;;;;;12.60;100.00;102605.72;5153963;27;20051;-83
2022/01/12 11:05:28;;;;;;;2.42;1.10;;;;;;;12.66;100.00;102605.63;5137972;27;20038;-83
2022/01/12 11:07:56;;;;;;;3.30;1.30;;;;;;;12.64;100.00;102607.41;5122819;27;20400;-82
2022/01/12 11:10:23;;;;;;;2.47;1.00;;;;;;;12.44;100.00;102615.63;5147102;27;20557;-83
2022/01/12 11:12:51;;;;;;;3.38;1.08;;;;;;;12.56;100.00;102597.03;5129202;27;20054;-84
2022/01/12 11:15:20;;;;;;;1.85;1.00;;;;;;;12.67;100.00;102596.84;5131301;27;20483;-83
2022/01/12 11:17:49;;;;;;;2.13;1.02;;;;;;;12.81;100.00;102591.38;5151834;27;20431;-83
2022/01/12 11:20:25;;;;;;;1.92;1.05;;;;;;;12.87;100.00;102597.38;5130328;27;20130;-84
2022/01/12 11:22:56;;;;;;;1.60;1.00;;;;;;;13.04;100.00;102602.31;5136300;27;20047;-84
2022/01/12 11:25:32;;;;;;;2.00;1.00;;;;;;;12.82;100.00;102591.34;5126684;27;20618;-85
2022/01/12 11:28:13;;;;;;;1.33;0.80;;;;;;;12.96;100.00;102595.47;5144711;27;20043;-84
2022/01/12 11:31:00;;;;;;;1.25;0.80;;;;;;;12.86;100.00;102600.91;5119505;27;20047;-84
2022/01/12 11:33:30;;;;;;;1.17;0.80;;;;;;;13.04;100.00;102597.06;5099678;27;20097;-84
2022/01/12 11:36:24;;;;;;;1.55;0.90;;;;;;;13.09;100.00;102605.75;5128219;27;20054;-84
2022/01/12 11:39:08;;;;;;;3.47;0.90;;;;;;;12.97;100.00;102584.94;5114459;27;20043;-84
2022/01/12 11:41:43;;;;;;;1.08;0.82;;;;;;;13.00;100.00;102578.78;5126813;27;20051;-84
2022/01/12 11:44:12;;;;;;;;;;;;;;;13.13;100.00;102600.44;5132796;27;20532;-82
2022/01/12 11:46:56;;;;;;;1.40;0.80;;;;;;;12.93;100.00;102595.56;5151047;27;19925;-83
2022/01/12 11:49:30;;;;;;;;;;;;;;;13.09;100.00;102597.00;5144684;27;20099;-84
2022/01/12 11:51:59;;;;;;;1.27;0.90;;;;;;;12.89;100.00;102584.19;5132837;27;19998;-84
2022/01/12 11:54:35;;;;;;;1.40;0.90;;;;;;;12.85;100.00;102575.50;5148029;27;20046;-84
2022/01/12 11:57:04;;;;;;;2.20;1.10;;;;;;;13.04;100.00;102588.31;5134895;27;20051;-84
2022/01/12 11:59:49;;;;;;;1.83;0.90;;;;;;;12.88;100.00;102575.44;5134433;27;20047;-83
2022/01/12 12:02:19;;;;;;;1.45;0.80;;;;;;;12.80;100.00;102590.50;5152592;27;20053;-84
2022/01/12 12:04:57;;;;;;;2.13;0.93;;;;;;;12.93;100.00;102579.78;5125986;27;20039;-83
2022/01/12 12:07:25;;;;;;;2.25;1.10;;;;;;;12.80;100.00;102564.22;5134438;27;20159;-84
2022/01/12 12:09:57;;;;;;;1.20;0.80;;;;;;;12.81;100.00;102567.72;5130910;28;20080;-84
2022/01/12 12:12:32;;;;;;;3.17;1.10;;;;;;;12.78;100.00;102570.38;5134531;27;20053;-83
2022/01/12 12:15:03;;;;;;;2.55;1.00;;;;;;;12.56;100.00;102541.00;5122866;27;20118;-83
2022/01/12 12:17:33;;;;;;;3.80;1.05;;;;;;;12.67;100.00;102563.53;5141067;27;20139;-83
2022/01/12 12:20:01;;;;;;;3.17;1.23;;;;;;;12.77;100.00;102563.41;5122901;27;20492;-83
2022/01/12 12:22:32;;;;;;;1.38;0.82;;;;;;;12.84;100.00;102547.50;5127420;27;20054;-83
2022/01/12 12:25:09;;;;;;;2.58;1.10;;;;;;;12.73;100.00;102565.22;5137412;27;20116;-84
2022/01/12 12:27:38;;;;;;;1.77;1.02;;;;;;;12.61;100.00;102529.50;5139199;27;20050;-84
2022/01/12 12:30:14;;;;;;;2.72;1.48;;;;;;;12.51;100.00;102520.03;5151119;27;20045;-84
2022/01/12 12:32:42;;;;;;;2.47;1.00;;;;;;;12.86;100.00;102560.59;5157406;27;20050;-83
2022/01/12 12:35:20;;;;;;;2.45;1.10;;;;;;;12.82;100.00;102544.03;5136052;27;20051;-83
2022/01/12 12:37:49;;;;;;;2.13;1.08;;;;;;;12.84;100.00;102536.97;5149206;27;20504;-83
2022/01/12 12:40:20;;;;;;;2.47;1.00;;;;;;;12.59;100.00;102522.53;5137894;27;20054;-83
2022/01/12 12:42:49;;;;;;;4.40;1.20;;;;;;;12.93;100.00;102541.19;5138390;27;20062;-83
2022/01/12 12:45:17;;;;;;;3.55;1.15;;;;;;;12.53;100.00;102519.09;5132771;27;20108;-84
2022/01/12 12:47:44;;;;;;;2.80;1.05;;;;;;;12.66;100.00;102519.78;5145335;27;20403;-83
2022/01/12 12:50:14;;;;;;;1.88;0.93;;;;;;;12.73;100.00;102547.69;5138537;27;20738;-83
2022/01/12 12:52:41;;;;;;;1.92;1.00;;;;;;;12.42;100.00;102536.81;5138285;27;20043;-83